Time;durP1;ratioP1;P1;durP2;ratioP2;P2;SDS_P1;SDS_P2;PMS_P1;PMS_P2;Temp;Humidity;BMP_temperature;BMP_pressure;BME280_temperature;BME280_humidity;BME280_pressure;Samples;Min_cycle;Max_cycle;Signal;HPM_P1;HPM_P2
2022/12/06 00:01:18;;;;;;;13.90;6.85;;;5.50;99.90;;;;;;5071871;28;20075;-70
2022/12/06 00:03:46;;;;;;;19.95;7.25;;;5.50;99.90;;;;;;5069747;28;20021;-70
2022/12/06 00:06:14;;;;;;;15.05;6.75;;;5.40;99.90;;;;;;5071549;28;20108;-70
2022/12/06 00:08:41;;;;;;;20.33;7.40;;;5.40;99.90;;;;;;5070187;28;20071;-70
2022/12/06 00:11:11;;;;;;;21.58;7.20;;;5.30;99.90;;;;;;5070879;28;20016;-69
2022/12/06 00:13:37;;;;;;;20.50;7.05;;;5.30;99.90;;;;;;5070622;28;20051;-70
2022/12/06 00:16:09;;;;;;;22.67;7.20;;;5.30;99.90;;;;;;5069570;28;20028;-70
2022/12/06 00:18:36;;;;;;;14.35;6.78;;;5.30;99.90;;;;;;5059269;28;20370;-70
2022/12/06 00:21:05;;;;;;;18.63;7.07;;;5.30;99.90;;;;;;5059600;28;20020;-70
2022/12/06 00:23:33;;;;;;;18.85;6.97;;;5.30;99.90;;;;;;5062037;28;20025;-70
2022/12/06 00:25:59;;;;;;;16.35;6.63;;;5.30;99.90;;;;;;5071086;28;20024;-69
2022/12/06 00:28:25;;;;;;;16.25;6.82;;;5.20;99.90;;;;;;5070782;28;20082;-69
2022/12/06 00:30:51;;;;;;;16.55;6.75;;;5.20;99.90;;;;;;5071001;28;20032;-70
2022/12/06 00:33:16;;;;;;;18.08;6.95;;;5.20;99.90;;;;;;5070087;28;20021;-70
2022/12/06 00:35:42;;;;;;;18.08;6.93;;;5.10;99.90;;;;;;5068296;28;20069;-70
2022/12/06 00:38:07;;;;;;;20.33;6.55;;;5.10;99.90;;;;;;5058712;28;20035;-70
2022/12/06 00:40:33;;;;;;;20.90;6.43;;;5.10;99.90;;;;;;5066061;28;20036;-69
2022/12/06 00:42:58;;;;;;;18.05;6.40;;;5.00;99.90;;;;;;5060110;28;20029;-69
2022/12/06 00:45:24;;;;;;;19.83;6.75;;;5.00;99.90;;;;;;5070289;28;20048;-70
2022/12/06 00:47:50;;;;;;;14.38;6.05;;;5.00;99.90;;;;;;5060659;28;20029;-70
2022/12/06 00:50:15;;;;;;;15.35;6.25;;;5.00;99.90;;;;;;5069289;28;20029;-70
2022/12/06 00:52:41;;;;;;;14.05;5.95;;;5.00;99.90;;;;;;5064499;28;20401;-70
2022/12/06 00:55:07;;;;;;;14.90;6.05;;;4.90;99.90;;;;;;5065919;28;20578;-70
2022/12/06 00:57:32;;;;;;;16.77;5.80;;;4.90;99.90;;;;;;5051361;28;20032;-70
2022/12/06 00:59:58;;;;;;;17.75;6.53;;;4.90;99.90;;;;;;5058403;28;20024;-70
2022/12/06 01:02:24;;;;;;;16.98;5.68;;;4.90;99.90;;;;;;5069794;28;20024;-70
2022/12/06 01:04:49;;;;;;;15.45;5.80;;;4.90;99.90;;;;;;5068876;28;20532;-70
2022/12/06 01:07:15;;;;;;;17.63;5.80;;;4.90;99.90;;;;;;5064963;28;20017;-70
2022/12/06 01:09:41;;;;;;;17.45;5.13;;;4.80;99.90;;;;;;5070461;28;20048;-70
2022/12/06 01:12:07;;;;;;;15.77;5.60;;;4.80;99.90;;;;;;5069632;28;20013;-70
2022/12/06 01:14:32;;;;;;;14.88;5.78;;;4.80;99.90;;;;;;5059293;28;20487;-70
2022/12/06 01:16:58;;;;;;;16.38;6.10;;;4.80;99.90;;;;;;5059829;28;20078;-70
2022/12/06 01:19:23;;;;;;;16.05;6.40;;;4.80;99.90;;;;;;5069807;28;20035;-70
2022/12/06 01:21:49;;;;;;;17.45;5.90;;;4.80;99.90;;;;;;5065399;28;20051;-70
2022/12/06 01:24:14;;;;;;;13.73;5.28;;;4.80;99.90;;;;;;5052884;28;20049;-70
2022/12/06 01:26:40;;;;;;;18.77;6.07;;;4.80;99.90;;;;;;5065194;28;20078;-70
2022/12/06 01:29:06;;;;;;;19.00;6.05;;;4.80;99.90;;;;;;5070053;28;20023;-69
2022/12/06 01:31:31;;;;;;;14.07;5.72;;;4.80;99.90;;;;;;5057686;28;20021;-70
2022/12/06 01:33:57;;;;;;;13.75;5.65;;;4.80;99.90;;;;;;5063522;28;20025;-69
2022/12/06 01:36:24;;;;;;;16.08;5.65;;;4.80;99.90;;;;;;5066057;28;20025;-70
2022/12/06 01:38:51;;;;;;;21.67;5.50;;;4.80;99.90;;;;;;5067835;28;20024;-70
2022/12/06 01:41:19;;;;;;;17.55;5.85;;;4.90;99.90;;;;;;5068833;28;20064;-70
2022/12/06 01:43:45;;;;;;;11.77;5.30;;;4.90;99.90;;;;;;5065693;28;20111;-70
2022/12/06 01:46:17;;;;;;;21.42;5.75;;;4.90;99.90;;;;;;5061215;28;20036;-70
2022/12/06 01:48:43;;;;;;;14.02;5.10;;;4.90;99.90;;;;;;5059455;28;20095;-70
2022/12/06 01:51:11;;;;;;;17.42;5.18;;;4.90;99.90;;;;;;5064107;28;20028;-70
2022/12/06 01:53:39;;;;;;;16.67;5.38;;;5.00;99.90;;;;;;5054922;28;20028;-70
2022/12/06 01:56:06;;;;;;;15.15;5.20;;;5.00;99.90;;;;;;5057457;28;20099;-70
2022/12/06 01:58:37;;;;;;;12.27;4.95;;;5.00;99.90;;;;;;5082026;28;20388;-70
2022/12/06 02:01:02;;;;;;;9.43;4.55;;;5.00;99.90;;;;;;5071954;28;20391;-70
2022/12/06 02:03:31;;;;;;;13.43;4.47;;;5.00;99.90;;;;;;5054747;28;20021;-70
2022/12/06 02:05:58;;;;;;;13.15;4.63;;;5.00;99.90;;;;;;5060648;28;20078;-69
2022/12/06 02:08:24;;;;;;;13.00;4.05;;;5.10;99.90;;;;;;5063457;28;20028;-71
2022/12/06 02:10:50;;;;;;;13.77;4.70;;;5.10;99.90;;;;;;5070288;28;20028;-69
2022/12/06 02:13:16;;;;;;;11.23;4.30;;;5.10;99.90;;;;;;5069619;28;20032;-70
2022/12/06 02:15:47;;;;;;;14.43;4.50;;;5.10;99.90;;;;;;5067842;28;20020;-69
2022/12/06 02:18:38;;;;;;;12.45;3.65;;;5.10;99.90;;;;;;5053020;28;20033;-70
2022/12/06 02:21:25;;;;;;;11.98;4.00;;;5.10;99.90;;;;;;5059083;28;20047;-69
2022/12/06 02:24:09;;;;;;;13.18;3.85;;;5.10;99.90;;;;;;5066199;28;20134;-70
2022/12/06 02:26:48;;;;;;;9.27;3.55;;;5.10;99.90;;;;;;5055131;28;20409;-70
2022/12/06 02:30:06;;;;;;;10.68;3.55;;;5.10;99.90;;;;;;5056285;28;20032;-70
2022/12/06 02:32:54;;;;;;;12.38;3.60;;;5.10;99.90;;;;;;5010825;28;20076;-70
2022/12/06 02:35:33;;;;;;;10.60;3.58;;;5.10;99.90;;;;;;5009578;28;20504;-70
2022/12/06 02:38:16;;;;;;;8.38;3.60;;;5.20;99.90;;;;;;5010257;28;20085;-70
2022/12/06 02:40:49;;;;;;;9.38;3.60;;;5.20;99.90;;;;;;5008860;28;20040;-70
2022/12/06 02:43:21;;;;;;;12.52;3.70;;;5.20;99.90;;;;;;5011045;28;20076;-70
2022/12/06 02:45:52;;;;;;;8.98;3.50;;;5.20;99.90;;;;;;5003989;28;20040;-70
2022/12/06 02:48:20;;;;;;;7.97;3.70;;;5.20;99.90;;;;;;5007375;28;20057;-70
2022/12/06 02:50:52;;;;;;;11.38;3.63;;;5.20;99.90;;;;;;5009541;28;20403;-70
2022/12/06 02:53:21;;;;;;;14.95;3.95;;;5.20;99.90;;;;;;5019533;28;20052;-70
2022/12/06 02:55:48;;;;;;;20.65;3.50;;;5.20;99.90;;;;;;5010586;28;20117;-70
2022/12/06 02:58:14;;;;;;;12.25;3.50;;;5.30;99.90;;;;;;5008489;28;20042;-70
2022/12/06 03:00:41;;;;;;;11.13;3.83;;;5.30;99.90;;;;;;4996433;28;20117;-71
2022/12/06 03:03:16;;;;;;;10.32;3.08;;;5.30;99.90;;;;;;5034416;28;20044;-70
2022/12/06 03:06:00;;;;;;;10.57;3.78;;;5.30;99.90;;;;;;5066070;28;20056;-70
2022/12/06 03:08:54;;;;;;;16.70;3.78;;;5.30;99.90;;;;;;5066071;28;20387;-69
2022/12/06 03:11:20;;;;;;;9.65;3.17;;;5.30;99.90;;;;;;5071829;28;20411;-70
2022/12/06 03:14:02;;;;;;;5.40;2.88;;;5.40;99.90;;;;;;5072449;28;20055;-70
2022/12/06 03:16:33;;;;;;;12.50;3.10;;;5.40;99.90;;;;;;5071704;28;20331;-69
2022/12/06 03:19:12;;;;;;;8.52;3.03;;;5.40;99.90;;;;;;5069967;28;20423;-70
2022/12/06 03:21:50;;;;;;;7.88;2.63;;;5.40;99.90;;;;;;5064455;28;20380;-70
2022/12/06 03:24:16;;;;;;;10.02;2.80;;;5.40;99.90;;;;;;5059445;28;20094;-70
2022/12/06 03:26:46;;;;;;;7.57;2.88;;;5.40;99.90;;;;;;5067124;28;20067;-70
2022/12/06 03:29:15;;;;;;;10.52;2.72;;;5.40;99.90;;;;;;5071481;28;20125;-69
2022/12/06 03:31:43;;;;;;;9.27;2.47;;;5.40;99.90;;;;;;5065065;28;20075;-70
2022/12/06 03:34:21;;;;;;;11.77;3.30;;;5.50;99.90;;;;;;5076355;28;20110;-71
2022/12/06 03:36:49;;;;;;;6.50;2.75;;;5.50;99.90;;;;;;5068171;28;20150;-70
2022/12/06 03:39:22;;;;;;;8.18;2.80;;;5.50;99.90;;;;;;5071255;28;20275;-70
2022/12/06 03:41:56;;;;;;;5.85;2.53;;;5.50;99.90;;;;;;5068582;28;20021;-70
2022/12/06 03:44:22;;;;;;;11.48;3.00;;;5.50;99.90;;;;;;5072669;28;20365;-70
2022/12/06 03:46:51;;;;;;;8.82;2.72;;;5.50;99.90;;;;;;5086134;28;20033;-70
2022/12/06 03:49:22;;;;;;;8.77;2.30;;;5.50;99.90;;;;;;5065873;28;20044;-69
2022/12/06 03:51:48;;;;;;;7.45;2.33;;;5.50;99.90;;;;;;5067727;28;20020;-70
2022/12/06 03:54:14;;;;;;;8.13;2.50;;;5.40;99.90;;;;;;5068323;28;20515;-70
2022/12/06 03:56:40;;;;;;;7.28;2.42;;;5.40;99.90;;;;;;5078657;28;20039;-70
2022/12/06 03:59:07;;;;;;;7.03;2.40;;;5.40;99.90;;;;;;5075783;28;20021;-69
2022/12/06 04:01:33;;;;;;;8.80;2.40;;;5.40;99.90;;;;;;5069835;28;20116;-70
2022/12/06 04:03:59;;;;;;;5.47;2.20;;;5.30;99.90;;;;;;5064422;28;20063;-69
2022/12/06 04:06:24;;;;;;;6.38;3.05;;;5.30;99.90;;;;;;5062222;28;20020;-70
2022/12/06 04:08:50;;;;;;;6.57;2.53;;;5.30;99.90;;;;;;5069530;28;20074;-70
2022/12/06 04:11:16;;;;;;;7.15;2.40;;;5.20;99.90;;;;;;5070643;28;20027;-70
2022/12/06 04:13:41;;;;;;;6.30;2.30;;;5.20;99.90;;;;;;5056762;28;20029;-70
2022/12/06 04:18:09;;;;;;;6.28;2.20;;;5.10;99.90;;;;;;5062751;28;20029;-70
2022/12/06 04:18:53;;;;;;;6.15;2.05;;;5.10;99.90;;;;;;5051366;28;20033;-70
2022/12/06 04:23:58;;;;;;;7.53;2.22;;;5.00;99.90;;;;;;5063711;28;20388;-71
2022/12/06 04:26:25;;;;;;;6.60;2.22;;;4.90;99.90;;;;;;5059667;28;20033;-70
2022/12/06 04:39:50;;;;;;;7.35;2.10;;;4.70;99.90;;;;;;5069601;28;20074;-71
2022/12/06 04:45:00;;;;;;;6.22;2.30;;;4.50;99.90;;;;;;5074779;28;20039;-70
2022/12/06 04:47:26;;;;;;;4.78;2.60;;;4.50;99.90;;;;;;5082595;28;20457;-71
2022/12/06 04:49:51;;;;;;;5.03;2.60;;;4.50;99.90;;;;;;5056286;28;20059;-70
2022/12/06 04:52:17;;;;;;;5.47;2.75;;;4.50;99.90;;;;;;5069425;28;20016;-70
2022/12/06 04:54:43;;;;;;;8.77;2.70;;;4.40;99.90;;;;;;5065747;28;20021;-71
2022/12/06 04:57:11;;;;;;;6.32;2.60;;;4.40;99.90;;;;;;5060432;28;20033;-70
2022/12/06 04:59:38;;;;;;;6.13;2.55;;;4.40;99.90;;;;;;5070502;28;20388;-70
2022/12/06 05:02:04;;;;;;;4.82;2.60;;;4.40;99.90;;;;;;5061180;28;20024;-70
2022/12/06 05:04:30;;;;;;;5.22;2.58;;;4.30;99.90;;;;;;5064712;28;20024;-70
2022/12/06 05:06:56;;;;;;;5.55;2.72;;;4.30;99.90;;;;;;5052773;28;20071;-71
2022/12/06 05:09:21;;;;;;;7.20;2.70;;;4.30;99.90;;;;;;5061972;28;20025;-71
2022/12/06 05:11:47;;;;;;;4.88;2.63;;;4.30;99.90;;;;;;5053588;28;20025;-71
2022/12/06 05:14:13;;;;;;;4.35;2.83;;;4.20;99.90;;;;;;5060870;28;20168;-70
2022/12/06 05:16:38;;;;;;;6.47;3.80;;;4.20;99.90;;;;;;5068475;28;20067;-70
2022/12/06 05:19:04;;;;;;;9.15;3.83;;;4.20;99.90;;;;;;5076548;28;20028;-70
2022/12/06 05:21:29;;;;;;;8.07;3.83;;;4.20;99.90;;;;;;5062086;28;20021;-70
2022/12/06 05:23:56;;;;;;;4.60;3.13;;;4.10;99.90;;;;;;5080431;28;20021;-71
2022/12/06 05:26:24;;;;;;;6.97;3.30;;;4.10;99.90;;;;;;5082761;28;20024;-70
2022/12/06 05:28:50;;;;;;;5.68;3.33;;;4.10;99.90;;;;;;5081639;28;20017;-70
2022/12/06 05:31:16;;;;;;;5.38;3.30;;;4.10;99.90;;;;;;5068336;28;20380;-70
2022/12/06 05:33:42;;;;;;;7.35;3.17;;;4.10;99.90;;;;;;5080455;28;20020;-70
2022/12/06 05:36:14;;;;;;;6.85;3.45;;;4.10;99.90;;;;;;5058409;28;20412;-71
2022/12/06 05:38:40;;;;;;;8.75;3.47;;;4.00;99.90;;;;;;5063536;28;20127;-70
2022/12/06 05:41:06;;;;;;;6.53;3.03;;;4.10;99.90;;;;;;5068956;28;20095;-71
2022/12/06 05:43:31;;;;;;;10.35;3.47;;;4.00;99.90;;;;;;5069466;28;20023;-71
2022/12/06 05:45:59;;;;;;;6.70;3.28;;;4.00;99.90;;;;;;5053962;28;20078;-71
2022/12/06 05:48:24;;;;;;;10.68;4.13;;;4.10;99.90;;;;;;5072264;28;20055;-71
2022/12/06 05:50:50;;;;;;;6.35;3.85;;;4.10;99.90;;;;;;5063890;28;20033;-71
2022/12/06 05:53:17;;;;;;;9.02;3.63;;;4.10;99.90;;;;;;5072616;28;20050;-71
2022/12/06 05:55:42;;;;;;;9.10;3.72;;;4.10;99.90;;;;;;5082249;28;20043;-72
2022/12/06 05:58:09;;;;;;;7.18;3.45;;;4.00;99.90;;;;;;5084679;28;20024;-71
2022/12/06 06:00:35;;;;;;;7.18;3.40;;;4.00;99.90;;;;;;5085045;28;20548;-71
2022/12/06 06:03:01;;;;;;;7.82;3.45;;;4.10;99.90;;;;;;5066097;28;20353;-70
2022/12/06 06:05:27;;;;;;;11.90;4.22;;;4.00;99.90;;;;;;5060493;28;20025;-70
2022/12/06 06:07:53;;;;;;;6.82;3.65;;;4.10;99.90;;;;;;5073053;28;20020;-71
2022/12/06 06:10:19;;;;;;;8.38;4.22;;;4.00;99.90;;;;;;5089722;28;20334;-71
2022/12/06 06:12:45;;;;;;;7.63;4.10;;;4.10;99.90;;;;;;5084035;28;20044;-71
2022/12/06 06:15:11;;;;;;;6.75;3.50;;;4.10;99.90;;;;;;5074166;28;20025;-71
2022/12/06 06:17:38;;;;;;;8.65;4.00;;;4.00;99.90;;;;;;5079271;28;20025;-71
2022/12/06 06:20:06;;;;;;;7.35;3.67;;;4.00;99.90;;;;;;5071380;28;20024;-71
2022/12/06 06:22:36;;;;;;;6.55;3.72;;;4.00;99.90;;;;;;5080723;28;20387;-71
2022/12/06 06:25:04;;;;;;;8.68;3.65;;;4.00;99.90;;;;;;5080538;28;20082;-71
2022/12/06 06:27:36;;;;;;;6.97;4.18;;;4.00;99.90;;;;;;5071513;28;20036;-71
2022/12/06 06:30:05;;;;;;;7.63;3.90;;;4.00;99.90;;;;;;5078463;28;20021;-70
2022/12/06 06:32:31;;;;;;;7.72;4.13;;;4.00;99.90;;;;;;5065781;28;20052;-70
2022/12/06 06:34:56;;;;;;;9.23;4.13;;;4.00;99.90;;;;;;5078862;28;20030;-70
2022/12/06 06:37:22;;;;;;;9.93;4.45;;;4.00;99.90;;;;;;5067102;28;20032;-69
2022/12/06 06:39:48;;;;;;;6.63;4.30;;;4.00;99.90;;;;;;5085088;28;20051;-70
2022/12/06 06:42:13;;;;;;;6.70;4.20;;;4.00;99.90;;;;;;5071974;28;20078;-70
2022/12/06 06:44:39;;;;;;;8.85;4.00;;;3.90;99.90;;;;;;5075110;28;20131;-70
2022/12/06 06:47:04;;;;;;;8.60;4.18;;;3.90;99.90;;;;;;5073673;28;20021;-70
2022/12/06 06:49:30;;;;;;;9.40;4.40;;;3.90;99.90;;;;;;5074028;28;20512;-70
2022/12/06 06:51:56;;;;;;;7.63;4.10;;;3.80;99.90;;;;;;5061849;28;20024;-70
2022/12/06 06:54:22;;;;;;;8.73;4.50;;;3.80;99.90;;;;;;5070437;28;20087;-71
2022/12/06 06:56:48;;;;;;;6.38;3.92;;;3.70;99.90;;;;;;5068183;28;20035;-71
2022/12/06 06:59:14;;;;;;;7.07;4.63;;;3.70;99.90;;;;;;5076591;28;20049;-70
2022/12/06 07:01:39;;;;;;;8.70;4.90;;;3.70;99.90;;;;;;5078255;28;20439;-71
2022/12/06 07:04:05;;;;;;;6.93;4.38;;;3.60;99.90;;;;;;5081392;28;20560;-70
2022/12/06 07:06:30;;;;;;;8.73;4.45;;;3.60;99.90;;;;;;5070248;28;20024;-71
2022/12/06 07:08:56;;;;;;;9.50;4.53;;;3.50;99.90;;;;;;5077088;28;20100;-71
2022/12/06 07:11:22;;;;;;;7.68;4.35;;;3.40;99.90;;;;;;5069057;28;20020;-70
2022/12/06 07:13:48;;;;;;;9.60;4.55;;;3.40;99.90;;;;;;5069445;28;20020;-70
2022/12/06 07:16:15;;;;;;;6.38;3.97;;;3.40;99.90;;;;;;5068294;28;20025;-70
2022/12/06 07:18:41;;;;;;;7.55;4.00;;;3.30;99.90;;;;;;5068765;28;20028;-70
2022/12/06 07:21:09;;;;;;;13.10;4.40;;;3.30;99.90;;;;;;5066338;28;20025;-71
2022/12/06 07:23:35;;;;;;;7.90;3.72;;;3.20;99.90;;;;;;5077534;28;20570;-70
2022/12/06 07:26:06;;;;;;;9.48;4.13;;;3.20;99.90;;;;;;5077476;28;20048;-70
2022/12/06 07:28:35;;;;;;;7.85;4.10;;;3.20;99.90;;;;;;5051874;28;20020;-70
2022/12/06 07:31:11;;;;;;;9.77;3.92;;;3.10;99.90;;;;;;5065244;28;20025;-71
2022/12/06 07:33:37;;;;;;;8.32;4.00;;;3.10;99.90;;;;;;5071285;28;20020;-70
2022/12/06 07:36:03;;;;;;;6.85;4.18;;;3.00;99.90;;;;;;5073829;28;20090;-70
2022/12/06 07:38:29;;;;;;;8.05;4.03;;;3.00;99.90;;;;;;5070302;28;20096;-70
2022/12/06 07:40:59;;;;;;;10.52;4.00;;;3.00;99.90;;;;;;5069502;28;20108;-71
2022/12/06 07:46:10;;;;;;;8.35;4.35;;;2.90;99.90;;;;;;5057414;28;20129;-71
2022/12/06 07:48:35;;;;;;;7.55;4.43;;;2.90;99.90;;;;;;5083924;28;20396;-70
2022/12/06 07:51:04;;;;;;;9.07;4.13;;;2.80;99.90;;;;;;5077303;28;20027;-70
2022/12/06 07:53:29;;;;;;;6.47;4.00;;;2.80;99.90;;;;;;5080377;28;20058;-70
2022/12/06 07:55:55;;;;;;;7.07;4.30;;;2.80;99.90;;;;;;5084140;28;20407;-70
2022/12/06 07:58:20;;;;;;;7.18;4.22;;;2.70;99.90;;;;;;5080372;28;20032;-70
2022/12/06 08:00:46;;;;;;;8.18;3.97;;;2.70;99.90;;;;;;5073495;28;20340;-70
2022/12/06 08:03:11;;;;;;;5.57;3.97;;;2.70;99.90;;;;;;5057185;28;20040;-70
2022/12/06 08:05:37;;;;;;;10.48;4.32;;;2.70;99.90;;;;;;5058262;28;20043;-70
2022/12/06 08:08:03;;;;;;;7.88;4.20;;;2.60;99.90;;;;;;5069050;28;20039;-70
2022/12/06 08:10:28;;;;;;;8.15;4.13;;;2.60;99.90;;;;;;5070088;28;20071;-70
2022/12/06 08:12:54;;;;;;;9.52;4.32;;;2.60;99.90;;;;;;5069559;28;20044;-70
2022/12/06 08:15:19;;;;;;;6.15;4.18;;;2.60;99.90;;;;;;5061287;28;20067;-70
2022/12/06 08:17:45;;;;;;;9.07;4.70;;;2.60;99.90;;;;;;5064929;28;20039;-70
2022/12/06 08:20:11;;;;;;;10.05;4.70;;;2.60;99.90;;;;;;5090139;28;20018;-70
2022/12/06 08:22:37;;;;;;;8.95;5.10;;;2.60;99.90;;;;;;5077764;28;20024;-70
2022/12/06 08:25:03;;;;;;;11.40;5.22;;;2.60;99.90;;;;;;5087591;28;20123;-70
2022/12/06 08:27:28;;;;;;;11.90;5.50;;;2.60;99.90;;;;;;5077803;28;20023;-70
2022/12/06 08:29:54;;;;;;;11.13;5.50;;;2.60;99.90;;;;;;5082128;28;20480;-70
2022/12/06 08:32:19;;;;;;;14.65;5.57;;;2.60;99.90;;;;;;5079846;28;20690;-70
2022/12/06 08:34:45;;;;;;;10.73;6.07;;;2.60;99.90;;;;;;5073838;28;20021;-70
2022/12/06 08:37:11;;;;;;;13.50;6.50;;;2.60;99.90;;;;;;5082036;28;20428;-71
2022/12/06 08:39:36;;;;;;;14.85;6.25;;;2.60;99.90;;;;;;5068232;28;20020;-70
2022/12/06 08:42:05;;;;;;;16.30;6.72;;;2.70;99.90;;;;;;5070917;28;20060;-70
2022/12/06 08:44:31;;;;;;;11.30;6.10;;;2.70;99.90;;;;;;5068383;28;20062;-70
2022/12/06 08:46:59;;;;;;;14.85;7.00;;;2.70;99.90;;;;;;5055866;28;20029;-70
2022/12/06 08:49:26;;;;;;;17.48;7.28;;;2.70;99.90;;;;;;5062492;28;20052;-70
2022/12/06 08:51:52;;;;;;;18.05;7.43;;;2.70;99.90;;;;;;5090840;28;20426;-70
2022/12/06 08:54:20;;;;;;;22.98;6.97;;;2.80;99.90;;;;;;5070042;28;20036;-70
2022/12/06 08:56:46;;;;;;;25.48;7.53;;;2.90;99.90;;;;;;5058329;28;20116;-70
2022/12/06 08:59:12;;;;;;;19.67;6.93;;;3.00;99.90;;;;;;5065788;28;20029;-70
2022/12/06 09:01:38;;;;;;;23.17;7.32;;;3.10;99.90;;;;;;5069144;28;20071;-70
2022/12/06 09:04:05;;;;;;;19.98;7.05;;;3.20;99.90;;;;;;5068333;28;20067;-70
2022/12/06 09:06:31;;;;;;;16.90;6.00;;;3.30;99.90;;;;;;5070011;28;20036;-70
2022/12/06 09:08:57;;;;;;;14.07;6.20;;;3.40;99.90;;;;;;5069703;28;20047;-70
2022/12/06 09:11:23;;;;;;;16.90;6.00;;;3.50;99.90;;;;;;5069713;28;20017;-72
2022/12/06 09:13:49;;;;;;;15.27;6.30;;;3.60;99.90;;;;;;5068159;28;20021;-71
2022/12/06 09:16:18;;;;;;;18.40;7.20;;;3.70;99.90;;;;;;5069021;28;20059;-70
2022/12/06 09:18:44;;;;;;;13.80;5.97;;;3.80;99.90;;;;;;5069825;28;20020;-70
2022/12/06 09:21:12;;;;;;;11.25;5.70;;;3.90;99.90;;;;;;5053577;28;20496;-70
2022/12/06 09:23:38;;;;;;;15.90;6.43;;;4.00;99.90;;;;;;5069867;28;20016;-70
2022/12/06 09:26:05;;;;;;;12.43;6.22;;;4.10;99.90;;;;;;5056590;28;20566;-70
2022/12/06 09:28:36;;;;;;;14.38;6.15;;;4.20;99.90;;;;;;5068019;28;20503;-70
2022/12/06 09:31:03;;;;;;;11.32;5.93;;;4.30;99.90;;;;;;5071903;28;20029;-70
2022/12/06 09:33:29;;;;;;;11.85;5.35;;;4.40;99.90;;;;;;5068123;28;20012;-71
2022/12/06 09:35:56;;;;;;;14.30;6.78;;;4.50;99.90;;;;;;5068864;28;20029;-70
2022/12/06 09:38:25;;;;;;;13.48;5.80;;;4.50;99.90;;;;;;5069300;28;20552;-70
2022/12/06 09:41:08;;;;;;;13.50;5.60;;;4.60;99.90;;;;;;5067184;28;20078;-70
2022/12/06 09:43:48;;;;;;;12.85;5.57;;;4.70;99.90;;;;;;5067628;28;20029;-70
2022/12/06 09:46:32;;;;;;;13.40;5.57;;;4.80;99.90;;;;;;5080537;28;20440;-71
2022/12/06 09:49:13;;;;;;;11.48;5.20;;;4.90;99.90;;;;;;5061447;28;20136;-70
2022/12/06 09:52:01;;;;;;;12.48;5.05;;;5.00;99.90;;;;;;5058676;28;20025;-70
2022/12/06 09:54:27;;;;;;;12.10;5.55;;;5.00;99.90;;;;;;5068657;28;20028;-71
2022/12/06 09:57:04;;;;;;;13.23;5.47;;;5.10;99.90;;;;;;5068918;28;20404;-71
2022/12/06 09:59:48;;;;;;;13.05;5.18;;;5.20;99.90;;;;;;5067947;28;20050;-70
2022/12/06 10:02:17;;;;;;;10.77;5.10;;;5.20;99.90;;;;;;5069443;28;20070;-71
2022/12/06 10:05:11;;;;;;;10.13;4.78;;;5.30;99.90;;;;;;5055630;28;20387;-70
2022/12/06 10:08:00;;;;;;;11.45;4.80;;;5.40;99.90;;;;;;5064309;28;20029;-70
2022/12/06 10:10:26;;;;;;;15.57;5.63;;;5.50;99.90;;;;;;5066314;28;20125;-71
2022/12/06 10:13:04;;;;;;;11.60;5.18;;;5.60;99.90;;;;;;5071729;28;20020;-70
2022/12/06 10:15:55;;;;;;;11.10;5.28;;;5.70;99.90;;;;;;5068224;28;20021;-70
2022/12/06 10:18:32;;;;;;;13.73;5.85;;;5.80;99.90;;;;;;5068767;28;20483;-70
2022/12/06 10:21:16;;;;;;;11.75;5.63;;;5.80;99.90;;;;;;5069074;28;20031;-70
2022/12/06 10:23:47;;;;;;;12.73;5.38;;;5.90;99.90;;;;;;5076914;28;20021;-71
2022/12/06 10:26:24;;;;;;;13.95;6.18;;;6.00;99.90;;;;;;5058334;28;20100;-70
2022/12/06 10:29:00;;;;;;;14.73;5.90;;;6.10;99.90;;;;;;5064005;28;20048;-70
2022/12/06 10:31:48;;;;;;;14.85;5.45;;;6.20;99.90;;;;;;5063201;28;20051;-70
2022/12/06 10:34:21;;;;;;;11.10;5.93;;;6.20;99.90;;;;;;5043417;28;20124;-70
2022/12/06 10:37:07;;;;;;;14.57;5.53;;;6.30;99.90;;;;;;5069491;28;20077;-70
2022/12/06 10:39:51;;;;;;;11.07;5.47;;;6.30;99.90;;;;;;5063179;28;20144;-70
2022/12/06 10:42:31;;;;;;;12.95;5.97;;;6.30;99.90;;;;;;5069636;28;20035;-70
2022/12/06 10:47:02;;;;;;;13.10;6.07;;;6.40;99.90;;;;;;5080942;28;20030;-70
2022/12/06 10:47:53;;;;;;;13.93;5.78;;;6.50;99.90;;;;;;5068945;28;20021;-70
2022/12/06 10:50:29;;;;;;;15.95;6.68;;;6.50;99.90;;;;;;5055791;28;20079;-70
2022/12/06 10:53:04;;;;;;;17.08;6.03;;;6.60;99.90;;;;;;5075095;28;20556;-70
2022/12/06 10:55:50;;;;;;;16.70;6.10;;;6.70;99.90;;;;;;5078447;28;20060;-72
2022/12/06 10:58:33;;;;;;;14.38;5.72;;;6.80;99.90;;;;;;5061027;28;20115;-71
2022/12/06 11:01:10;;;;;;;12.20;5.32;;;6.80;99.90;;;;;;5059515;28;20103;-71
2022/12/06 11:03:52;;;;;;;13.60;5.47;;;6.90;99.90;;;;;;5080899;28;20020;-70
2022/12/06 11:06:30;;;;;;;16.85;6.00;;;7.00;99.90;;;;;;5074477;28;20016;-71
2022/12/06 11:09:03;;;;;;;14.38;4.63;;;7.10;99.90;;;;;;5078515;28;20060;-71
2022/12/06 11:11:35;;;;;;;16.13;5.32;;;7.20;99.90;;;;;;5087008;28;20471;-71
2022/12/06 11:14:13;;;;;;;9.95;4.35;;;7.30;99.90;;;;;;5091225;28;20414;-71
2022/12/06 11:17:01;;;;;;;15.73;5.13;;;7.30;99.90;;;;;;5069368;28;20028;-71
2022/12/06 11:19:36;;;;;;;11.63;4.90;;;7.40;99.90;;;;;;5071388;28;20419;-71
2022/12/06 11:22:43;;;;;;;21.02;4.75;;;7.40;99.90;;;;;;5060381;28;20103;-70
2022/12/06 11:25:27;;;;;;;15.32;5.05;;;7.50;99.90;;;;;;5088321;28;20040;-70
2022/12/06 11:28:31;;;;;;;8.30;3.90;;;7.60;99.90;;;;;;5075243;28;20025;-71
2022/12/06 11:30:57;;;;;;;8.25;3.92;;;7.60;99.90;;;;;;5063574;28;20173;-71
2022/12/06 11:33:33;;;;;;;13.75;4.53;;;7.70;99.90;;;;;;5071170;28;20035;-71
2022/12/06 11:36:02;;;;;;;11.82;4.60;;;7.80;99.90;;;;;;5078304;28;20027;-70
2022/12/06 11:38:28;;;;;;;11.77;4.15;;;7.80;99.90;;;;;;5067077;28;20017;-70
2022/12/06 11:40:54;;;;;;;10.27;3.75;;;7.80;99.90;;;;;;5069691;28;20022;-70
2022/12/06 11:43:25;;;;;;;8.23;2.67;;;7.80;99.90;;;;;;5070175;28;20091;-71
2022/12/06 11:45:53;;;;;;;8.73;2.30;;;7.80;99.90;;;;;;5082375;28;20469;-71
2022/12/06 11:48:22;;;;;;;3.78;1.98;;;7.80;99.90;;;;;;5059655;28;20102;-70
2022/12/06 11:50:49;;;;;;;5.95;1.85;;;7.90;99.90;;;;;;5080125;28;20028;-71
2022/12/06 11:53:55;;;;;;;4.18;1.42;;;8.00;99.90;;;;;;5079882;28;20031;-70
2022/12/06 11:56:23;;;;;;;5.90;1.40;;;8.20;99.90;;;;;;5007664;28;20125;-71
2022/12/06 11:59:20;;;;;;;5.68;1.50;;;8.20;99.90;;;;;;5009627;28;20034;-71
2022/12/06 12:01:51;;;;;;;4.82;1.27;;;8.20;99.90;;;;;;5008631;28;20022;-71
2022/12/06 12:04:41;;;;;;;3.22;1.17;;;8.20;99.90;;;;;;5019910;28;20044;-72
2022/12/06 12:07:16;;;;;;;8.55;1.30;;;8.20;99.90;;;;;;5027722;28;20029;-71
2022/12/06 12:09:51;;;;;;;4.65;1.35;;;8.20;99.90;;;;;;5023932;28;20413;-71
2022/12/06 12:13:42;;;;;;;2.97;1.10;;;8.20;99.90;;;;;;5016407;28;20030;-71
2022/12/06 12:15:16;;;;;;;4.85;1.10;;;8.30;99.90;;;;;;5014967;28;20021;-71
2022/12/06 12:17:46;;;;;;;6.38;1.27;;;8.30;99.90;;;;;;5011685;28;20433;-71
2022/12/06 12:20:22;;;;;;;3.97;1.00;;;8.30;99.90;;;;;;5007720;28;20569;-71
2022/12/06 12:22:58;;;;;;;2.72;0.90;;;8.20;99.90;;;;;;5020310;28;20496;-70
2022/12/06 12:25:27;;;;;;;1.63;0.70;;;8.20;99.90;;;;;;4979350;28;20022;-71
2022/12/06 12:28:00;;;;;;;1.33;0.80;;;8.20;99.90;;;;;;5007816;28;20038;-70
2022/12/06 12:30:35;;;;;;;3.45;0.77;;;8.10;99.90;;;;;;5030277;28;20036;-71
2022/12/06 12:33:04;;;;;;;2.10;0.77;;;8.10;99.90;;;;;;5065466;28;20020;-71
2022/12/06 12:35:31;;;;;;;2.55;0.70;;;8.10;99.90;;;;;;5076545;28;20420;-71
2022/12/06 12:38:04;;;;;;;3.97;0.70;;;8.10;99.90;;;;;;5084106;28;20036;-71
2022/12/06 12:40:38;;;;;;;2.60;0.77;;;8.10;99.90;;;;;;5084088;28;20039;-71
2022/12/06 12:43:05;;;;;;;5.75;0.75;;;8.00;99.90;;;;;;5087548;28;20039;-71
2022/12/06 12:45:30;;;;;;;2.60;0.95;;;8.00;99.90;;;;;;5084774;28;20045;-71
2022/12/06 12:47:56;;;;;;;1.42;0.70;;;8.00;99.90;;;;;;5083079;28;20016;-71
2022/12/06 12:50:22;;;;;;;2.50;0.70;;;8.00;99.90;;;;;;5087543;28;20430;-71
2022/12/06 12:52:49;;;;;;;3.47;0.70;;;8.00;99.90;;;;;;5076632;28;20050;-72
2022/12/06 12:55:21;;;;;;;1.65;0.85;;;8.00;99.90;;;;;;5067707;28;20397;-71
2022/12/06 12:57:49;;;;;;;2.58;0.60;;;8.00;99.90;;;;;;5076620;28;20039;-71
2022/12/06 13:00:18;;;;;;;3.72;0.70;;;8.00;99.90;;;;;;5070856;28;20166;-71
2022/12/06 13:02:49;;;;;;;7.07;0.90;;;7.90;99.90;;;;;;5078874;28;20028;-71
2022/12/06 13:05:21;;;;;;;2.90;0.93;;;7.90;99.90;;;;;;5076442;28;20042;-70
2022/12/06 13:07:49;;;;;;;4.63;1.30;;;7.90;99.90;;;;;;5075993;28;20551;-70
2022/12/06 13:10:36;;;;;;;7.05;1.13;;;7.90;99.90;;;;;;5071344;28;20032;-71
2022/12/06 13:13:15;;;;;;;4.40;1.27;;;7.90;99.90;;;;;;5082320;28;20642;-71
2022/12/06 13:15:46;;;;;;;3.28;1.45;;;7.90;99.90;;;;;;5070126;28;20167;-70
2022/12/06 13:18:54;;;;;;;3.88;1.50;;;7.90;99.90;;;;;;5070433;28;20043;-70
2022/12/06 13:21:28;;;;;;;6.03;2.20;;;7.90;99.90;;;;;;4989384;28;20139;-71
2022/12/06 13:24:17;;;;;;;4.50;2.10;;;7.90;99.90;;;;;;4989256;28;20498;-70
2022/12/06 13:27:02;;;;;;;6.28;2.20;;;7.90;99.90;;;;;;4988903;28;20514;-70
2022/12/06 13:29:36;;;;;;;4.75;2.17;;;7.90;99.90;;;;;;4989953;28;20490;-70